sensor_id;sensor_type;location;lat;lon;timestamp;P1;durP1;ratioP1;P2;durP2;ratioP2
36185;SDS011;22228;53.222;7.446;2024-03-17T00:02:56;12.20;;;4.27;;
36185;SDS011;22228;53.222;7.446;2024-03-17T00:06:16;14.97;;;4.93;;
36185;SDS011;22228;53.222;7.446;2024-03-17T00:09:36;9.43;;;3.53;;
36185;SDS011;22228;53.222;7.446;2024-03-17T00:12:57;15.13;;;5.00;;
36185;SDS011;22228;53.222;7.446;2024-03-17T00:16:19;11.47;;;4.57;;
36185;SDS011;22228;53.222;7.446;2024-03-17T00:19:39;11.00;;;4.50;;
36185;SDS011;22228;53.222;7.446;2024-03-17T00:23:00;12.10;;;4.67;;
36185;SDS011;22228;53.222;7.446;2024-03-17T00:26:20;9.63;;;4.20;;
36185;SDS011;22228;53.222;7.446;2024-03-17T00:29:41;15.10;;;4.27;;
36185;SDS011;22228;53.222;7.446;2024-03-17T00:33:03;15.03;;;5.63;;
36185;SDS011;22228;53.222;7.446;2024-03-17T00:36:23;11.37;;;5.23;;
36185;SDS011;22228;53.222;7.446;2024-03-17T00:39:43;16.27;;;5.70;;
36185;SDS011;22228;53.222;7.446;2024-03-17T00:43:03;14.77;;;5.30;;
36185;SDS011;22228;53.222;7.446;2024-03-17T00:46:24;14.73;;;4.87;;
36185;SDS011;22228;53.222;7.446;2024-03-17T00:49:45;16.07;;;5.40;;
36185;SDS011;22228;53.222;7.446;2024-03-17T00:53:05;10.30;;;5.00;;
36185;SDS011;22228;53.222;7.446;2024-03-17T00:56:25;15.67;;;5.97;;
36185;SDS011;22228;53.222;7.446;2024-03-17T00:59:46;18.60;;;6.10;;
36185;SDS011;22228;53.222;7.446;2024-03-17T01:03:07;10.63;;;5.83;;
36185;SDS011;22228;53.222;7.446;2024-03-17T01:06:28;13.37;;;6.60;;
36185;SDS011;22228;53.222;7.446;2024-03-17T01:09:50;16.50;;;6.93;;
36185;SDS011;22228;53.222;7.446;2024-03-17T01:13:11;13.43;;;6.90;;
36185;SDS011;22228;53.222;7.446;2024-03-17T04:03:15;15.87;;;12.27;;
36185;SDS011;22228;53.222;7.446;2024-03-17T04:06:36;15.70;;;12.00;;
36185;SDS011;22228;53.222;7.446;2024-03-17T04:09:56;13.83;;;12.33;;
36185;SDS011;22228;53.222;7.446;2024-03-17T04:13:17;14.80;;;12.00;;
36185;SDS011;22228;53.222;7.446;2024-03-17T04:16:37;18.73;;;13.10;;
36185;SDS011;22228;53.222;7.446;2024-03-17T04:19:59;14.83;;;11.70;;
36185;SDS011;22228;53.222;7.446;2024-03-17T04:23:20;15.90;;;12.57;;
36185;SDS011;22228;53.222;7.446;2024-03-17T04:26:41;13.17;;;11.87;;
36185;SDS011;22228;53.222;7.446;2024-03-17T04:30:02;21.10;;;12.33;;
36185;SDS011;22228;53.222;7.446;2024-03-17T04:33:24;19.60;;;12.57;;
36185;SDS011;22228;53.222;7.446;2024-03-17T04:36:46;18.13;;;11.80;;
36185;SDS011;22228;53.222;7.446;2024-03-17T04:40:07;14.43;;;11.27;;
36185;SDS011;22228;53.222;7.446;2024-03-17T04:43:30;13.03;;;11.00;;
36185;SDS011;22228;53.222;7.446;2024-03-17T04:46:51;16.80;;;11.13;;
36185;SDS011;22228;53.222;7.446;2024-03-17T04:50:13;13.87;;;11.17;;
36185;SDS011;22228;53.222;7.446;2024-03-17T04:53:35;15.67;;;11.53;;
36185;SDS011;22228;53.222;7.446;2024-03-17T04:56:56;16.03;;;11.50;;
36185;SDS011;22228;53.222;7.446;2024-03-17T05:00:16;12.10;;;10.87;;
36185;SDS011;22228;53.222;7.446;2024-03-17T05:03:37;15.23;;;10.40;;
36185;SDS011;22228;53.222;7.446;2024-03-17T05:06:58;15.70;;;11.00;;
36185;SDS011;22228;53.222;7.446;2024-03-17T05:10:20;15.97;;;11.23;;
36185;SDS011;22228;53.222;7.446;2024-03-17T05:13:41;11.03;;;9.87;;
36185;SDS011;22228;53.222;7.446;2024-03-17T05:17:01;14.90;;;11.63;;
36185;SDS011;22228;53.222;7.446;2024-03-17T05:20:22;14.00;;;11.67;;
36185;SDS011;22228;53.222;7.446;2024-03-17T05:23:42;15.33;;;12.17;;
36185;SDS011;22228;53.222;7.446;2024-03-17T05:27:04;16.63;;;12.40;;
36185;SDS011;22228;53.222;7.446;2024-03-17T05:30:24;18.70;;;12.00;;
36185;SDS011;22228;53.222;7.446;2024-03-17T05:33:45;14.03;;;11.73;;
36185;SDS011;22228;53.222;7.446;2024-03-17T05:37:06;12.73;;;10.90;;
36185;SDS011;22228;53.222;7.446;2024-03-17T05:40:27;16.20;;;11.50;;
36185;SDS011;22228;53.222;7.446;2024-03-17T05:43:50;12.07;;;10.80;;
36185;SDS011;22228;53.222;7.446;2024-03-17T05:47:11;12.70;;;11.33;;
36185;SDS011;22228;53.222;7.446;2024-03-17T05:50:31;12.73;;;11.43;;
36185;SDS011;22228;53.222;7.446;2024-03-17T05:53:52;14.13;;;11.37;;
36185;SDS011;22228;53.222;7.446;2024-03-17T05:57:14;14.33;;;12.07;;
36185;SDS011;22228;53.222;7.446;2024-03-17T06:00:36;14.13;;;11.97;;
36185;SDS011;22228;53.222;7.446;2024-03-17T06:03:56;15.60;;;13.20;;
36185;SDS011;22228;53.222;7.446;2024-03-17T06:07:18;14.30;;;12.30;;
36185;SDS011;22228;53.222;7.446;2024-03-17T06:10:42;16.07;;;13.30;;
36185;SDS011;22228;53.222;7.446;2024-03-17T06:14:03;19.20;;;13.13;;
36185;SDS011;22228;53.222;7.446;2024-03-17T06:17:26;12.90;;;11.20;;
36185;SDS011;22228;53.222;7.446;2024-03-17T06:20:47;12.97;;;11.43;;
36185;SDS011;22228;53.222;7.446;2024-03-17T06:24:08;16.07;;;12.93;;
36185;SDS011;22228;53.222;7.446;2024-03-17T06:27:28;22.20;;;14.90;;
36185;SDS011;22228;53.222;7.446;2024-03-17T06:30:56;14.23;;;12.73;;
36185;SDS011;22228;53.222;7.446;2024-03-17T06:34:19;16.97;;;13.53;;
36185;SDS011;22228;53.222;7.446;2024-03-17T06:37:40;19.43;;;13.27;;
36185;SDS011;22228;53.222;7.446;2024-03-17T06:41:00;22.47;;;13.33;;
36185;SDS011;22228;53.222;7.446;2024-03-17T06:44:20;15.43;;;12.63;;
36185;SDS011;22228;53.222;7.446;2024-03-17T06:47:43;16.17;;;11.70;;
36185;SDS011;22228;53.222;7.446;2024-03-17T06:51:05;16.20;;;12.23;;
36185;SDS011;22228;53.222;7.446;2024-03-17T06:54:25;21.10;;;12.13;;
36185;SDS011;22228;53.222;7.446;2024-03-17T06:57:46;15.33;;;11.63;;
36185;SDS011;22228;53.222;7.446;2024-03-17T07:01:07;19.93;;;12.27;;
36185;SDS011;22228;53.222;7.446;2024-03-17T07:04:29;19.90;;;13.37;;
36185;SDS011;22228;53.222;7.446;2024-03-17T07:07:50;19.43;;;12.30;;
36185;SDS011;22228;53.222;7.446;2024-03-17T07:11:11;15.27;;;12.27;;
36185;SDS011;22228;53.222;7.446;2024-03-17T07:14:31;20.07;;;12.93;;
36185;SDS011;22228;53.222;7.446;2024-03-17T07:17:52;16.70;;;12.53;;
36185;SDS011;22228;53.222;7.446;2024-03-17T07:21:12;17.43;;;11.50;;
36185;SDS011;22228;53.222;7.446;2024-03-17T07:24:34;16.70;;;11.73;;
36185;SDS011;22228;53.222;7.446;2024-03-17T07:27:54;15.57;;;12.20;;
36185;SDS011;22228;53.222;7.446;2024-03-17T07:31:15;16.70;;;11.97;;
36185;SDS011;22228;53.222;7.446;2024-03-17T07:34:35;22.20;;;12.57;;
36185;SDS011;22228;53.222;7.446;2024-03-17T07:37:56;19.20;;;12.13;;
36185;SDS011;22228;53.222;7.446;2024-03-17T07:41:18;17.03;;;12.27;;
36185;SDS011;22228;53.222;7.446;2024-03-17T07:44:39;20.10;;;13.47;;
36185;SDS011;22228;53.222;7.446;2024-03-17T07:47:59;22.50;;;13.33;;
36185;SDS011;22228;53.222;7.446;2024-03-17T07:51:19;20.70;;;12.63;;
36185;SDS011;22228;53.222;7.446;2024-03-17T07:54:40;19.20;;;14.10;;
36185;SDS011;22228;53.222;7.446;2024-03-17T07:58:02;24.30;;;15.07;;
36185;SDS011;22228;53.222;7.446;2024-03-17T08:01:23;20.60;;;13.33;;
36185;SDS011;22228;53.222;7.446;2024-03-17T08:04:43;15.63;;;11.40;;
36185;SDS011;22228;53.222;7.446;2024-03-17T08:08:04;19.30;;;10.87;;
36185;SDS011;22228;53.222;7.446;2024-03-17T08:11:26;16.17;;;9.57;;
36185;SDS011;22228;53.222;7.446;2024-03-17T08:14:48;11.63;;;7.30;;
36185;SDS011;22228;53.222;7.446;2024-03-17T08:18:08;9.03;;;6.20;;
36185;SDS011;22228;53.222;7.446;2024-03-17T08:21:29;13.50;;;4.90;;
36185;SDS011;22228;53.222;7.446;2024-03-17T08:24:49;14.63;;;4.67;;
36185;SDS011;22228;53.222;7.446;2024-03-17T08:28:10;12.30;;;3.80;;
36185;SDS011;22228;53.222;7.446;2024-03-17T08:31:32;12.87;;;3.97;;
36185;SDS011;22228;53.222;7.446;2024-03-17T08:34:53;14.47;;;4.50;;
36185;SDS011;22228;53.222;7.446;2024-03-17T08:38:13;11.00;;;3.87;;
36185;SDS011;22228;53.222;7.446;2024-03-17T08:41:33;15.83;;;3.70;;
36185;SDS011;22228;53.222;7.446;2024-03-17T08:44:54;13.10;;;3.47;;
36185;SDS011;22228;53.222;7.446;2024-03-17T08:48:16;11.93;;;3.00;;
36185;SDS011;22228;53.222;7.446;2024-03-17T08:51:36;8.97;;;2.57;;
36185;SDS011;22228;53.222;7.446;2024-03-17T08:54:57;14.37;;;2.90;;
36185;SDS011;22228;53.222;7.446;2024-03-17T08:58:17;11.33;;;2.97;;
36185;SDS011;22228;53.222;7.446;2024-03-17T09:01:38;11.67;;;2.90;;
36185;SDS011;22228;53.222;7.446;2024-03-17T09:04:59;7.83;;;1.90;;
36185;SDS011;22228;53.222;7.446;2024-03-17T09:08:21;8.77;;;2.30;;
36185;SDS011;22228;53.222;7.446;2024-03-17T09:11:43;7.73;;;2.00;;
36185;SDS011;22228;53.222;7.446;2024-03-17T09:15:04;5.63;;;2.20;;
36185;SDS011;22228;53.222;7.446;2024-03-17T09:18:25;10.93;;;3.07;;
36185;SDS011;22228;53.222;7.446;2024-03-17T09:21:47;10.53;;;2.70;;
36185;SDS011;22228;53.222;7.446;2024-03-17T09:25:07;8.47;;;2.03;;
36185;SDS011;22228;53.222;7.446;2024-03-17T09:28:28;9.83;;;2.40;;
36185;SDS011;22228;53.222;7.446;2024-03-17T09:31:49;10.37;;;2.10;;
36185;SDS011;22228;53.222;7.446;2024-03-17T09:35:10;7.67;;;2.20;;
36185;SDS011;22228;53.222;7.446;2024-03-17T09:38:32;9.73;;;2.67;;
36185;SDS011;22228;53.222;7.446;2024-03-17T09:41:53;7.67;;;1.90;;
36185;SDS011;22228;53.222;7.446;2024-03-17T09:45:13;9.20;;;1.60;;
36185;SDS011;22228;53.222;7.446;2024-03-17T09:48:36;6.40;;;1.53;;
36185;SDS011;22228;53.222;7.446;2024-03-17T09:51:56;5.93;;;1.53;;
36185;SDS011;22228;53.222;7.446;2024-03-17T09:55:20;7.17;;;2.07;;
36185;SDS011;22228;53.222;7.446;2024-03-17T09:58:41;5.70;;;1.70;;
36185;SDS011;22228;53.222;7.446;2024-03-17T10:02:02;5.13;;;1.67;;
36185;SDS011;22228;53.222;7.446;2024-03-17T10:05:27;9.40;;;2.10;;
36185;SDS011;22228;53.222;7.446;2024-03-17T10:08:49;6.90;;;1.87;;
36185;SDS011;22228;53.222;7.446;2024-03-17T10:12:30;5.37;;;1.90;;
36185;SDS011;22228;53.222;7.446;2024-03-17T10:15:50;8.27;;;2.23;;
36185;SDS011;22228;53.222;7.446;2024-03-17T10:19:11;5.87;;;1.63;;
36185;SDS011;22228;53.222;7.446;2024-03-17T10:22:32;7.20;;;2.07;;
36185;SDS011;22228;53.222;7.446;2024-03-17T10:25:53;13.50;;;2.13;;
36185;SDS011;22228;53.222;7.446;2024-03-17T10:29:22;10.97;;;2.30;;
36185;SDS011;22228;53.222;7.446;2024-03-17T10:32:44;7.67;;;2.10;;
36185;SDS011;22228;53.222;7.446;2024-03-17T10:36:05;6.90;;;1.37;;
36185;SDS011;22228;53.222;7.446;2024-03-17T10:39:36;6.27;;;1.90;;
36185;SDS011;22228;53.222;7.446;2024-03-17T10:42:57;6.93;;;1.83;;
36185;SDS011;22228;53.222;7.446;2024-03-17T10:46:21;8.03;;;2.17;;
36185;SDS011;22228;53.222;7.446;2024-03-17T10:49:45;10.17;;;2.10;;
36185;SDS011;22228;53.222;7.446;2024-03-17T10:53:07;3.53;;;1.60;;
36185;SDS011;22228;53.222;7.446;2024-03-17T10:56:27;5.60;;;2.00;;
36185;SDS011;22228;53.222;7.446;2024-03-17T10:59:48;6.57;;;2.07;;
36185;SDS011;22228;53.222;7.446;2024-03-17T11:03:10;4.43;;;1.63;;
36185;SDS011;22228;53.222;7.446;2024-03-17T11:06:31;6.60;;;2.00;;
36185;SDS011;22228;53.222;7.446;2024-03-17T11:09:52;7.70;;;2.40;;
36185;SDS011;22228;53.222;7.446;2024-03-17T11:13:22;9.50;;;2.00;;
36185;SDS011;22228;53.222;7.446;2024-03-17T11:16:43;6.83;;;2.03;;
36185;SDS011;22228;53.222;7.446;2024-03-17T11:20:14;8.60;;;2.73;;
36185;SDS011;22228;53.222;7.446;2024-03-17T11:23:36;8.23;;;1.90;;
36185;SDS011;22228;53.222;7.446;2024-03-17T11:26:56;7.13;;;2.27;;
36185;SDS011;22228;53.222;7.446;2024-03-17T11:37:59;8.80;;;2.90;;
36185;SDS011;22228;53.222;7.446;2024-03-17T11:41:36;8.17;;;3.20;;
36185;SDS011;22228;53.222;7.446;2024-03-17T11:45:00;7.93;;;3.90;;
36185;SDS011;22228;53.222;7.446;2024-03-17T11:48:25;5.80;;;3.13;;
36185;SDS011;22228;53.222;7.446;2024-03-17T11:51:46;8.50;;;2.90;;
36185;SDS011;22228;53.222;7.446;2024-03-17T11:55:16;7.00;;;3.93;;
36185;SDS011;22228;53.222;7.446;2024-03-17T11:58:37;8.13;;;3.90;;
36185;SDS011;22228;53.222;7.446;2024-03-17T12:02:00;4.13;;;3.07;;
36185;SDS011;22228;53.222;7.446;2024-03-17T12:05:21;6.73;;;3.70;;
36185;SDS011;22228;53.222;7.446;2024-03-17T12:08:41;7.03;;;4.70;;
36185;SDS011;22228;53.222;7.446;2024-03-17T12:12:04;8.10;;;4.33;;
36185;SDS011;22228;53.222;7.446;2024-03-17T12:15:27;9.03;;;5.20;;
36185;SDS011;22228;53.222;7.446;2024-03-17T12:18:47;8.37;;;5.07;;
36185;SDS011;22228;53.222;7.446;2024-03-17T12:22:06;10.10;;;4.20;;
36185;SDS011;22228;53.222;7.446;2024-03-17T12:25:28;8.87;;;5.33;;
36185;SDS011;22228;53.222;7.446;2024-03-17T12:28:50;7.83;;;5.97;;
36185;SDS011;22228;53.222;7.446;2024-03-17T12:32:12;10.23;;;5.57;;
36185;SDS011;22228;53.222;7.446;2024-03-17T12:35:34;6.07;;;5.37;;
36185;SDS011;22228;53.222;7.446;2024-03-17T12:38:54;8.17;;;5.90;;
36185;SDS011;22228;53.222;7.446;2024-03-17T12:42:15;8.90;;;6.03;;
36185;SDS011;22228;53.222;7.446;2024-03-17T12:45:37;8.97;;;5.67;;
36185;SDS011;22228;53.222;7.446;2024-03-17T12:48:58;7.90;;;5.50;;
36185;SDS011;22228;53.222;7.446;2024-03-17T12:52:18;7.57;;;4.90;;
36185;SDS011;22228;53.222;7.446;2024-03-17T12:55:40;5.93;;;5.03;;
36185;SDS011;22228;53.222;7.446;2024-03-17T12:59:18;11.37;;;5.27;;
36185;SDS011;22228;53.222;7.446;2024-03-17T13:02:57;9.97;;;5.00;;
36185;SDS011;22228;53.222;7.446;2024-03-17T13:06:22;8.57;;;5.63;;
36185;SDS011;22228;53.222;7.446;2024-03-17T13:09:43;10.20;;;5.33;;
36185;SDS011;22228;53.222;7.446;2024-03-17T13:13:04;7.57;;;5.03;;
36185;SDS011;22228;53.222;7.446;2024-03-17T13:16:27;8.67;;;5.40;;
36185;SDS011;22228;53.222;7.446;2024-03-17T13:19:49;6.73;;;5.07;;
36185;SDS011;22228;53.222;7.446;2024-03-17T13:23:10;10.43;;;5.27;;
36185;SDS011;22228;53.222;7.446;2024-03-17T13:26:30;8.73;;;5.37;;
36185;SDS011;22228;53.222;7.446;2024-03-17T13:29:51;8.13;;;5.63;;
36185;SDS011;22228;53.222;7.446;2024-03-17T13:33:12;8.90;;;5.70;;
36185;SDS011;22228;53.222;7.446;2024-03-17T13:36:35;8.70;;;5.30;;
36185;SDS011;22228;53.222;7.446;2024-03-17T13:39:56;5.83;;;4.93;;
36185;SDS011;22228;53.222;7.446;2024-03-17T13:43:17;7.47;;;5.97;;
36185;SDS011;22228;53.222;7.446;2024-03-17T13:46:37;6.57;;;5.60;;
36185;SDS011;22228;53.222;7.446;2024-03-17T13:49:58;7.20;;;5.80;;
36185;SDS011;22228;53.222;7.446;2024-03-17T13:53:19;7.07;;;5.20;;
36185;SDS011;22228;53.222;7.446;2024-03-17T13:56:40;9.47;;;5.83;;
36185;SDS011;22228;53.222;7.446;2024-03-17T14:00:01;7.30;;;5.00;;
36185;SDS011;22228;53.222;7.446;2024-03-17T14:03:30;9.50;;;6.37;;
36185;SDS011;22228;53.222;7.446;2024-03-17T14:06:51;7.70;;;5.73;;
36185;SDS011;22228;53.222;7.446;2024-03-17T14:10:13;10.27;;;5.70;;
36185;SDS011;22228;53.222;7.446;2024-03-17T14:13:35;8.13;;;5.30;;
36185;SDS011;22228;53.222;7.446;2024-03-17T14:16:55;6.80;;;5.87;;
36185;SDS011;22228;53.222;7.446;2024-03-17T14:20:16;6.83;;;6.13;;
36185;SDS011;22228;53.222;7.446;2024-03-17T14:23:38;6.13;;;5.63;;
36185;SDS011;22228;53.222;7.446;2024-03-17T14:27:00;7.23;;;5.67;;
36185;SDS011;22228;53.222;7.446;2024-03-17T14:30:20;6.90;;;6.20;;
36185;SDS011;22228;53.222;7.446;2024-03-17T14:33:41;9.63;;;5.50;;
36185;SDS011;22228;53.222;7.446;2024-03-17T14:37:02;7.90;;;5.57;;
36185;SDS011;22228;53.222;7.446;2024-03-17T14:40:22;8.30;;;6.10;;
36185;SDS011;22228;53.222;7.446;2024-03-17T14:43:44;7.53;;;5.60;;
36185;SDS011;22228;53.222;7.446;2024-03-17T14:47:05;9.20;;;5.63;;
36185;SDS011;22228;53.222;7.446;2024-03-17T14:50:26;9.17;;;6.43;;
36185;SDS011;22228;53.222;7.446;2024-03-17T14:53:46;7.33;;;5.63;;
36185;SDS011;22228;53.222;7.446;2024-03-17T14:57:07;6.50;;;5.83;;
36185;SDS011;22228;53.222;7.446;2024-03-17T15:00:30;6.03;;;5.43;;
36185;SDS011;22228;53.222;7.446;2024-03-17T15:03:50;8.50;;;5.70;;
36185;SDS011;22228;53.222;7.446;2024-03-17T15:07:12;7.87;;;5.77;;
36185;SDS011;22228;53.222;7.446;2024-03-17T15:10:33;7.40;;;5.63;;
36185;SDS011;22228;53.222;7.446;2024-03-17T15:13:54;11.77;;;6.00;;
36185;SDS011;22228;53.222;7.446;2024-03-17T15:17:16;6.13;;;5.53;;
36185;SDS011;22228;53.222;7.446;2024-03-17T15:20:36;6.67;;;5.97;;
36185;SDS011;22228;53.222;7.446;2024-03-17T15:23:57;5.40;;;4.93;;
36185;SDS011;22228;53.222;7.446;2024-03-17T15:27:17;6.03;;;5.10;;
36185;SDS011;22228;53.222;7.446;2024-03-17T15:30:38;7.27;;;4.90;;
36185;SDS011;22228;53.222;7.446;2024-03-17T15:34:00;5.97;;;5.40;;
36185;SDS011;22228;53.222;7.446;2024-03-17T15:37:20;6.03;;;5.43;;
36185;SDS011;22228;53.222;7.446;2024-03-17T15:40:41;8.00;;;5.13;;
36185;SDS011;22228;53.222;7.446;2024-03-17T15:44:02;6.20;;;4.97;;
36185;SDS011;22228;53.222;7.446;2024-03-17T15:47:23;7.13;;;5.50;;
36185;SDS011;22228;53.222;7.446;2024-03-17T15:50:49;7.70;;;5.37;;
36185;SDS011;22228;53.222;7.446;2024-03-17T15:54:13;5.83;;;4.87;;
36185;SDS011;22228;53.222;7.446;2024-03-17T15:57:34;6.40;;;5.17;;
36185;SDS011;22228;53.222;7.446;2024-03-17T16:00:55;6.87;;;5.17;;
36185;SDS011;22228;53.222;7.446;2024-03-17T16:04:16;6.23;;;4.70;;
36185;SDS011;22228;53.222;7.446;2024-03-17T16:07:38;7.07;;;4.63;;
36185;SDS011;22228;53.222;7.446;2024-03-17T16:10:59;10.57;;;6.77;;
36185;SDS011;22228;53.222;7.446;2024-03-17T16:14:20;5.47;;;4.97;;
36185;SDS011;22228;53.222;7.446;2024-03-17T16:17:42;7.93;;;5.20;;
36185;SDS011;22228;53.222;7.446;2024-03-17T16:21:04;7.03;;;5.93;;
36185;SDS011;22228;53.222;7.446;2024-03-17T16:24:28;6.80;;;4.80;;
36185;SDS011;22228;53.222;7.446;2024-03-17T16:27:52;7.93;;;4.93;;
36185;SDS011;22228;53.222;7.446;2024-03-17T16:31:13;7.03;;;4.90;;
36185;SDS011;22228;53.222;7.446;2024-03-17T16:34:34;4.90;;;4.40;;
36185;SDS011;22228;53.222;7.446;2024-03-17T16:37:55;6.50;;;4.80;;
36185;SDS011;22228;53.222;7.446;2024-03-17T16:41:17;4.77;;;4.27;;
36185;SDS011;22228;53.222;7.446;2024-03-17T16:44:42;7.17;;;4.90;;
36185;SDS011;22228;53.222;7.446;2024-03-17T16:48:08;6.93;;;5.07;;
36185;SDS011;22228;53.222;7.446;2024-03-17T16:51:29;7.43;;;4.77;;
36185;SDS011;22228;53.222;7.446;2024-03-17T16:54:49;6.43;;;4.10;;
36185;SDS011;22228;53.222;7.446;2024-03-17T16:58:12;7.80;;;4.53;;
36185;SDS011;22228;53.222;7.446;2024-03-17T17:01:32;6.37;;;4.70;;
36185;SDS011;22228;53.222;7.446;2024-03-17T17:04:55;5.17;;;4.67;;
36185;SDS011;22228;53.222;7.446;2024-03-17T17:08:15;6.83;;;5.30;;
36185;SDS011;22228;53.222;7.446;2024-03-17T17:11:36;7.17;;;4.53;;
36185;SDS011;22228;53.222;7.446;2024-03-17T17:14:58;8.77;;;5.10;;
36185;SDS011;22228;53.222;7.446;2024-03-17T17:22:13;8.13;;;5.60;;
36185;SDS011;22228;53.222;7.446;2024-03-17T17:25:34;5.90;;;4.87;;
36185;SDS011;22228;53.222;7.446;2024-03-17T17:28:56;9.03;;;5.90;;
36185;SDS011;22228;53.222;7.446;2024-03-17T17:32:18;6.80;;;5.77;;
36185;SDS011;22228;53.222;7.446;2024-03-17T17:35:38;7.17;;;5.77;;
36185;SDS011;22228;53.222;7.446;2024-03-17T17:38:59;7.37;;;5.20;;
36185;SDS011;22228;53.222;7.446;2024-03-17T17:42:20;7.50;;;5.47;;
36185;SDS011;22228;53.222;7.446;2024-03-17T17:45:41;7.63;;;4.47;;
36185;SDS011;22228;53.222;7.446;2024-03-17T17:49:03;5.57;;;4.27;;
36185;SDS011;22228;53.222;7.446;2024-03-17T17:52:23;7.80;;;4.80;;
36185;SDS011;22228;53.222;7.446;2024-03-17T17:55:43;5.57;;;4.40;;
36185;SDS011;22228;53.222;7.446;2024-03-17T17:59:04;6.10;;;4.20;;
36185;SDS011;22228;53.222;7.446;2024-03-17T18:02:25;7.27;;;5.13;;
36185;SDS011;22228;53.222;7.446;2024-03-17T18:05:48;10.33;;;4.77;;
36185;SDS011;22228;53.222;7.446;2024-03-17T18:09:08;7.20;;;5.37;;
36185;SDS011;22228;53.222;7.446;2024-03-17T18:12:34;7.83;;;5.53;;
36185;SDS011;22228;53.222;7.446;2024-03-17T18:15:55;6.10;;;5.50;;
36185;SDS011;22228;53.222;7.446;2024-03-17T18:19:16;6.43;;;5.13;;
36185;SDS011;22228;53.222;7.446;2024-03-17T18:22:38;6.03;;;4.93;;
36185;SDS011;22228;53.222;7.446;2024-03-17T18:25:58;7.20;;;5.10;;
36185;SDS011;22228;53.222;7.446;2024-03-17T18:29:24;6.83;;;5.10;;
36185;SDS011;22228;53.222;7.446;2024-03-17T18:32:44;7.97;;;4.83;;
36185;SDS011;22228;53.222;7.446;2024-03-17T18:36:05;9.43;;;5.60;;
36185;SDS011;22228;53.222;7.446;2024-03-17T18:39:28;10.20;;;4.77;;
36185;SDS011;22228;53.222;7.446;2024-03-17T18:42:48;7.90;;;4.77;;
36185;SDS011;22228;53.222;7.446;2024-03-17T18:46:11;5.83;;;4.83;;
36185;SDS011;22228;53.222;7.446;2024-03-17T18:49:32;10.13;;;4.97;;
36185;SDS011;22228;53.222;7.446;2024-03-17T18:52:52;6.70;;;5.30;;
36185;SDS011;22228;53.222;7.446;2024-03-17T18:56:15;6.37;;;5.67;;
36185;SDS011;22228;53.222;7.446;2024-03-17T18:59:36;6.17;;;4.27;;
36185;SDS011;22228;53.222;7.446;2024-03-17T19:02:56;6.97;;;5.03;;
36185;SDS011;22228;53.222;7.446;2024-03-17T19:06:17;6.67;;;5.33;;
36185;SDS011;22228;53.222;7.446;2024-03-17T19:09:37;6.43;;;4.33;;
36185;SDS011;22228;53.222;7.446;2024-03-17T19:13:02;7.53;;;4.93;;
36185;SDS011;22228;53.222;7.446;2024-03-17T19:16:22;8.77;;;4.77;;
36185;SDS011;22228;53.222;7.446;2024-03-17T19:19:43;6.87;;;4.40;;
36185;SDS011;22228;53.222;7.446;2024-03-17T19:23:04;6.23;;;4.30;;
36185;SDS011;22228;53.222;7.446;2024-03-17T19:26:25;8.43;;;4.87;;
36185;SDS011;22228;53.222;7.446;2024-03-17T19:29:46;6.90;;;4.47;;
36185;SDS011;22228;53.222;7.446;2024-03-17T19:33:07;8.07;;;4.60;;
36185;SDS011;22228;53.222;7.446;2024-03-17T19:36:28;7.40;;;4.50;;
36185;SDS011;22228;53.222;7.446;2024-03-17T19:39:48;7.63;;;4.73;;
36185;SDS011;22228;53.222;7.446;2024-03-17T19:43:09;10.17;;;4.73;;
36185;SDS011;22228;53.222;7.446;2024-03-17T19:46:31;8.23;;;4.90;;
36185;SDS011;22228;53.222;7.446;2024-03-17T19:49:52;5.73;;;4.43;;
36185;SDS011;22228;53.222;7.446;2024-03-17T19:53:12;6.17;;;4.47;;
36185;SDS011;22228;53.222;7.446;2024-03-17T19:56:33;12.03;;;5.60;;
36185;SDS011;22228;53.222;7.446;2024-03-17T19:59:53;6.63;;;4.37;;
36185;SDS011;22228;53.222;7.446;2024-03-17T20:03:15;6.30;;;4.73;;
36185;SDS011;22228;53.222;7.446;2024-03-17T20:06:35;5.87;;;4.53;;
36185;SDS011;22228;53.222;7.446;2024-03-17T20:09:56;9.97;;;5.30;;
36185;SDS011;22228;53.222;7.446;2024-03-17T20:13:17;7.93;;;5.33;;
36185;SDS011;22228;53.222;7.446;2024-03-17T20:16:37;9.57;;;5.33;;
36185;SDS011;22228;53.222;7.446;2024-03-17T20:19:59;9.07;;;5.40;;
36185;SDS011;22228;53.222;7.446;2024-03-17T20:23:19;9.33;;;5.53;;
36185;SDS011;22228;53.222;7.446;2024-03-17T20:26:40;7.47;;;5.40;;
36185;SDS011;22228;53.222;7.446;2024-03-17T20:30:00;11.07;;;6.40;;
36185;SDS011;22228;53.222;7.446;2024-03-17T20:33:21;10.87;;;6.13;;
36185;SDS011;22228;53.222;7.446;2024-03-17T20:36:43;7.07;;;6.20;;
36185;SDS011;22228;53.222;7.446;2024-03-17T20:40:03;8.00;;;6.17;;
36185;SDS011;22228;53.222;7.446;2024-03-17T20:43:28;11.40;;;6.57;;
36185;SDS011;22228;53.222;7.446;2024-03-17T20:46:48;10.57;;;5.70;;
36185;SDS011;22228;53.222;7.446;2024-03-17T20:50:15;10.07;;;6.80;;
36185;SDS011;22228;53.222;7.446;2024-03-17T20:53:38;11.93;;;6.53;;
36185;SDS011;22228;53.222;7.446;2024-03-17T20:56:58;10.60;;;7.00;;
36185;SDS011;22228;53.222;7.446;2024-03-17T21:00:20;11.10;;;6.20;;
36185;SDS011;22228;53.222;7.446;2024-03-17T21:03:42;11.23;;;6.47;;
36185;SDS011;22228;53.222;7.446;2024-03-17T21:07:04;8.60;;;5.77;;
36185;SDS011;22228;53.222;7.446;2024-03-17T21:10:28;12.00;;;6.40;;
36185;SDS011;22228;53.222;7.446;2024-03-17T21:13:48;7.73;;;6.83;;
36185;SDS011;22228;53.222;7.446;2024-03-17T21:17:09;9.43;;;6.73;;
36185;SDS011;22228;53.222;7.446;2024-03-17T21:20:30;10.63;;;7.03;;
36185;SDS011;22228;53.222;7.446;2024-03-17T21:23:52;8.70;;;6.97;;
36185;SDS011;22228;53.222;7.446;2024-03-17T21:27:14;8.93;;;6.23;;
36185;SDS011;22228;53.222;7.446;2024-03-17T21:30:34;8.80;;;6.90;;
36185;SDS011;22228;53.222;7.446;2024-03-17T21:33:55;7.47;;;6.33;;
36185;SDS011;22228;53.222;7.446;2024-03-17T21:37:15;9.50;;;7.20;;
36185;SDS011;22228;53.222;7.446;2024-03-17T21:40:36;10.77;;;7.10;;
36185;SDS011;22228;53.222;7.446;2024-03-17T21:43:58;11.73;;;6.60;;
36185;SDS011;22228;53.222;7.446;2024-03-17T21:47:18;11.30;;;7.60;;
36185;SDS011;22228;53.222;7.446;2024-03-17T21:50:39;11.93;;;7.03;;
36185;SDS011;22228;53.222;7.446;2024-03-17T21:53:59;10.43;;;7.63;;
36185;SDS011;22228;53.222;7.446;2024-03-17T21:57:20;11.80;;;6.93;;
36185;SDS011;22228;53.222;7.446;2024-03-17T22:00:42;8.87;;;7.53;;
36185;SDS011;22228;53.222;7.446;2024-03-17T22:04:03;9.40;;;6.80;;
36185;SDS011;22228;53.222;7.446;2024-03-17T22:07:23;11.57;;;7.53;;
36185;SDS011;22228;53.222;7.446;2024-03-17T22:10:50;7.97;;;6.60;;
36185;SDS011;22228;53.222;7.446;2024-03-17T22:14:13;12.00;;;7.07;;
36185;SDS011;22228;53.222;7.446;2024-03-17T22:17:35;10.87;;;7.10;;
36185;SDS011;22228;53.222;7.446;2024-03-17T22:20:57;12.53;;;7.80;;
36185;SDS011;22228;53.222;7.446;2024-03-17T22:24:18;12.17;;;7.43;;
36185;SDS011;22228;53.222;7.446;2024-03-17T22:27:39;8.80;;;6.77;;
36185;SDS011;22228;53.222;7.446;2024-03-17T22:31:00;9.47;;;6.90;;
36185;SDS011;22228;53.222;7.446;2024-03-17T22:34:24;12.10;;;7.57;;
36185;SDS011;22228;53.222;7.446;2024-03-17T22:37:45;9.63;;;7.23;;
36185;SDS011;22228;53.222;7.446;2024-03-17T22:41:06;12.87;;;7.43;;
36185;SDS011;22228;53.222;7.446;2024-03-17T22:44:27;10.07;;;7.30;;
36185;SDS011;22228;53.222;7.446;2024-03-17T22:47:48;9.03;;;6.70;;
36185;SDS011;22228;53.222;7.446;2024-03-17T22:51:11;10.70;;;7.43;;
36185;SDS011;22228;53.222;7.446;2024-03-17T22:54:32;11.43;;;7.23;;
36185;SDS011;22228;53.222;7.446;2024-03-17T22:57:53;10.87;;;7.20;;
36185;SDS011;22228;53.222;7.446;2024-03-17T23:01:13;9.90;;;7.93;;